sensor_id;sensor_type;location;lat;lon;timestamp;P1;durP1;ratioP1;P2;durP2;ratioP2
8219;SDS011;4151;51.110;7.020;2023-05-07T00:01:43;8.10;;;4.00;;
8219;SDS011;4151;51.110;7.020;2023-05-07T00:04:09;7.30;;;4.07;;
8219;SDS011;4151;51.110;7.020;2023-05-07T00:06:35;5.13;;;3.40;;
8219;SDS011;4151;51.110;7.020;2023-05-07T00:09:01;15.13;;;4.43;;
8219;SDS011;4151;51.110;7.020;2023-05-07T00:11:27;5.73;;;3.60;;
8219;SDS011;4151;51.110;7.020;2023-05-07T00:13:53;4.70;;;3.50;;
8219;SDS011;4151;51.110;7.020;2023-05-07T00:16:19;7.77;;;3.50;;
8219;SDS011;4151;51.110;7.020;2023-05-07T00:18:44;4.20;;;3.20;;
8219;SDS011;4151;51.110;7.020;2023-05-07T00:21:10;4.70;;;3.00;;
8219;SDS011;4151;51.110;7.020;2023-05-07T00:23:36;11.57;;;5.60;;
8219;SDS011;4151;51.110;7.020;2023-05-07T00:26:02;11.20;;;5.50;;
8219;SDS011;4151;51.110;7.020;2023-05-07T00:28:28;7.00;;;4.10;;
8219;SDS011;4151;51.110;7.020;2023-05-07T00:30:54;7.80;;;4.00;;
8219;SDS011;4151;51.110;7.020;2023-05-07T00:33:19;4.70;;;3.70;;
8219;SDS011;4151;51.110;7.020;2023-05-07T00:35:45;13.70;;;3.60;;
8219;SDS011;4151;51.110;7.020;2023-05-07T00:38:11;6.50;;;3.70;;
8219;SDS011;4151;51.110;7.020;2023-05-07T00:40:37;6.43;;;4.17;;
8219;SDS011;4151;51.110;7.020;2023-05-07T00:43:02;11.20;;;3.93;;
8219;SDS011;4151;51.110;7.020;2023-05-07T00:45:28;5.50;;;3.73;;
8219;SDS011;4151;51.110;7.020;2023-05-07T00:47:58;10.07;;;4.83;;
8219;SDS011;4151;51.110;7.020;2023-05-07T00:50:26;8.23;;;4.43;;
8219;SDS011;4151;51.110;7.020;2023-05-07T00:52:52;7.83;;;4.07;;
8219;SDS011;4151;51.110;7.020;2023-05-07T00:55:18;6.77;;;4.40;;
8219;SDS011;4151;51.110;7.020;2023-05-07T00:57:45;9.97;;;3.80;;
8219;SDS011;4151;51.110;7.020;2023-05-07T01:00:11;4.73;;;3.57;;
8219;SDS011;4151;51.110;7.020;2023-05-07T01:02:40;7.43;;;3.70;;
8219;SDS011;4151;51.110;7.020;2023-05-07T01:05:07;8.70;;;3.47;;
8219;SDS011;4151;51.110;7.020;2023-05-07T01:07:34;5.23;;;3.83;;
8219;SDS011;4151;51.110;7.020;2023-05-07T01:10:01;5.80;;;4.20;;
8219;SDS011;4151;51.110;7.020;2023-05-07T01:12:28;10.83;;;3.47;;
8219;SDS011;4151;51.110;7.020;2023-05-07T01:14:54;6.37;;;3.13;;
8219;SDS011;4151;51.110;7.020;2023-05-07T01:17:20;6.37;;;3.50;;
8219;SDS011;4151;51.110;7.020;2023-05-07T01:19:45;3.47;;;2.67;;
8219;SDS011;4151;51.110;7.020;2023-05-07T01:22:12;3.70;;;2.37;;
8219;SDS011;4151;51.110;7.020;2023-05-07T01:24:41;7.97;;;2.90;;
8219;SDS011;4151;51.110;7.020;2023-05-07T01:27:07;5.90;;;2.97;;
8219;SDS011;4151;51.110;7.020;2023-05-07T01:29:33;3.93;;;2.63;;
8219;SDS011;4151;51.110;7.020;2023-05-07T01:31:59;5.20;;;2.63;;
8219;SDS011;4151;51.110;7.020;2023-05-07T01:34:26;5.07;;;2.33;;
8219;SDS011;4151;51.110;7.020;2023-05-07T01:36:55;2.93;;;2.33;;
8219;SDS011;4151;51.110;7.020;2023-05-07T01:39:26;6.13;;;2.10;;
8219;SDS011;4151;51.110;7.020;2023-05-07T01:41:56;9.63;;;2.77;;
8219;SDS011;4151;51.110;7.020;2023-05-07T01:44:23;3.00;;;2.53;;
8219;SDS011;4151;51.110;7.020;2023-05-07T01:46:49;5.97;;;2.30;;
8219;SDS011;4151;51.110;7.020;2023-05-07T01:49:15;2.90;;;2.50;;
8219;SDS011;4151;51.110;7.020;2023-05-07T01:51:41;3.67;;;2.20;;
8219;SDS011;4151;51.110;7.020;2023-05-07T01:54:08;3.90;;;2.10;;
8219;SDS011;4151;51.110;7.020;2023-05-07T01:56:34;3.83;;;2.00;;
8219;SDS011;4151;51.110;7.020;2023-05-07T01:59:00;3.10;;;2.30;;
8219;SDS011;4151;51.110;7.020;2023-05-07T02:01:25;5.33;;;2.80;;
8219;SDS011;4151;51.110;7.020;2023-05-07T02:03:51;1.90;;;1.77;;
8219;SDS011;4151;51.110;7.020;2023-05-07T02:06:16;4.23;;;2.30;;
8219;SDS011;4151;51.110;7.020;2023-05-07T02:08:42;7.73;;;1.73;;
8219;SDS011;4151;51.110;7.020;2023-05-07T02:11:08;6.63;;;2.07;;
8219;SDS011;4151;51.110;7.020;2023-05-07T02:13:33;5.17;;;1.83;;
8219;SDS011;4151;51.110;7.020;2023-05-07T02:15:59;2.77;;;1.80;;
8219;SDS011;4151;51.110;7.020;2023-05-07T02:18:25;2.57;;;2.03;;
8219;SDS011;4151;51.110;7.020;2023-05-07T02:20:51;5.00;;;2.13;;
8219;SDS011;4151;51.110;7.020;2023-05-07T02:23:17;3.00;;;1.83;;
8219;SDS011;4151;51.110;7.020;2023-05-07T02:25:42;1.97;;;1.73;;
8219;SDS011;4151;51.110;7.020;2023-05-07T02:28:08;2.30;;;1.80;;
8219;SDS011;4151;51.110;7.020;2023-05-07T02:30:35;2.80;;;2.07;;
8219;SDS011;4151;51.110;7.020;2023-05-07T02:33:02;2.17;;;1.77;;
8219;SDS011;4151;51.110;7.020;2023-05-07T02:35:27;2.23;;;1.83;;
8219;SDS011;4151;51.110;7.020;2023-05-07T02:37:53;4.10;;;2.30;;
8219;SDS011;4151;51.110;7.020;2023-05-07T02:40:19;2.50;;;2.07;;
8219;SDS011;4151;51.110;7.020;2023-05-07T02:42:44;2.40;;;1.80;;
8219;SDS011;4151;51.110;7.020;2023-05-07T02:45:10;6.07;;;2.60;;
8219;SDS011;4151;51.110;7.020;2023-05-07T02:47:36;10.30;;;2.63;;
8219;SDS011;4151;51.110;7.020;2023-05-07T02:50:01;6.87;;;2.77;;
8219;SDS011;4151;51.110;7.020;2023-05-07T02:52:27;7.50;;;3.13;;
8219;SDS011;4151;51.110;7.020;2023-05-07T02:54:53;4.00;;;2.73;;
8219;SDS011;4151;51.110;7.020;2023-05-07T02:57:18;7.60;;;2.83;;
8219;SDS011;4151;51.110;7.020;2023-05-07T02:59:44;4.03;;;2.40;;
8219;SDS011;4151;51.110;7.020;2023-05-07T03:02:10;4.13;;;2.63;;
8219;SDS011;4151;51.110;7.020;2023-05-07T03:04:35;4.40;;;2.30;;
8219;SDS011;4151;51.110;7.020;2023-05-07T03:07:01;3.50;;;2.60;;
8219;SDS011;4151;51.110;7.020;2023-05-07T03:09:26;5.00;;;2.47;;
8219;SDS011;4151;51.110;7.020;2023-05-07T03:11:52;4.80;;;2.53;;
8219;SDS011;4151;51.110;7.020;2023-05-07T03:14:18;2.57;;;1.90;;
8219;SDS011;4151;51.110;7.020;2023-05-07T03:16:43;3.23;;;2.40;;
8219;SDS011;4151;51.110;7.020;2023-05-07T03:19:09;10.40;;;2.40;;
8219;SDS011;4151;51.110;7.020;2023-05-07T03:21:34;3.00;;;2.40;;
8219;SDS011;4151;51.110;7.020;2023-05-07T03:24:00;2.70;;;2.30;;
8219;SDS011;4151;51.110;7.020;2023-05-07T03:26:25;5.23;;;2.40;;
8219;SDS011;4151;51.110;7.020;2023-05-07T03:28:51;3.00;;;2.53;;
8219;SDS011;4151;51.110;7.020;2023-05-07T03:31:17;5.83;;;2.87;;
8219;SDS011;4151;51.110;7.020;2023-05-07T03:34:01;10.60;;;2.90;;
8219;SDS011;4151;51.110;7.020;2023-05-07T03:36:26;4.00;;;2.20;;
8219;SDS011;4151;51.110;7.020;2023-05-07T03:38:52;4.77;;;2.57;;
8219;SDS011;4151;51.110;7.020;2023-05-07T03:41:18;3.90;;;2.70;;
8219;SDS011;4151;51.110;7.020;2023-05-07T03:43:43;4.43;;;2.23;;
8219;SDS011;4151;51.110;7.020;2023-05-07T03:46:09;3.23;;;2.07;;
8219;SDS011;4151;51.110;7.020;2023-05-07T03:48:35;7.50;;;5.33;;
8219;SDS011;4151;51.110;7.020;2023-05-07T03:51:00;5.57;;;4.03;;
8219;SDS011;4151;51.110;7.020;2023-05-07T03:53:26;7.13;;;2.20;;
8219;SDS011;4151;51.110;7.020;2023-05-07T03:55:52;4.90;;;2.30;;
8219;SDS011;4151;51.110;7.020;2023-05-07T03:58:18;2.90;;;2.53;;
8219;SDS011;4151;51.110;7.020;2023-05-07T04:00:44;2.63;;;2.40;;
8219;SDS011;4151;51.110;7.020;2023-05-07T04:03:09;4.17;;;2.60;;
8219;SDS011;4151;51.110;7.020;2023-05-07T04:05:35;7.90;;;2.37;;
8219;SDS011;4151;51.110;7.020;2023-05-07T04:08:00;3.37;;;3.00;;
8219;SDS011;4151;51.110;7.020;2023-05-07T04:10:27;3.10;;;2.50;;
8219;SDS011;4151;51.110;7.020;2023-05-07T04:12:54;6.10;;;2.67;;
8219;SDS011;4151;51.110;7.020;2023-05-07T04:15:19;4.60;;;2.60;;
8219;SDS011;4151;51.110;7.020;2023-05-07T04:17:45;4.43;;;2.67;;
8219;SDS011;4151;51.110;7.020;2023-05-07T04:20:14;3.20;;;2.33;;
8219;SDS011;4151;51.110;7.020;2023-05-07T04:22:41;4.53;;;2.73;;
8219;SDS011;4151;51.110;7.020;2023-05-07T04:25:07;8.00;;;2.47;;
8219;SDS011;4151;51.110;7.020;2023-05-07T04:27:34;4.10;;;2.30;;
8219;SDS011;4151;51.110;7.020;2023-05-07T04:30:00;10.90;;;3.17;;
8219;SDS011;4151;51.110;7.020;2023-05-07T04:32:25;13.30;;;2.53;;
8219;SDS011;4151;51.110;7.020;2023-05-07T04:34:51;4.33;;;2.30;;
8219;SDS011;4151;51.110;7.020;2023-05-07T04:37:17;4.73;;;2.70;;
8219;SDS011;4151;51.110;7.020;2023-05-07T04:39:43;9.47;;;6.57;;
8219;SDS011;4151;51.110;7.020;2023-05-07T04:42:08;11.50;;;6.73;;
8219;SDS011;4151;51.110;7.020;2023-05-07T04:44:35;5.70;;;3.73;;
8219;SDS011;4151;51.110;7.020;2023-05-07T04:47:02;2.80;;;2.60;;
8219;SDS011;4151;51.110;7.020;2023-05-07T04:49:27;5.20;;;2.57;;
8219;SDS011;4151;51.110;7.020;2023-05-07T04:51:53;7.30;;;3.23;;
8219;SDS011;4151;51.110;7.020;2023-05-07T04:54:19;5.90;;;3.30;;
8219;SDS011;4151;51.110;7.020;2023-05-07T04:56:44;8.27;;;2.90;;
8219;SDS011;4151;51.110;7.020;2023-05-07T04:59:10;10.73;;;2.80;;
8219;SDS011;4151;51.110;7.020;2023-05-07T05:01:35;6.27;;;2.47;;
8219;SDS011;4151;51.110;7.020;2023-05-07T05:04:01;5.47;;;3.13;;
8219;SDS011;4151;51.110;7.020;2023-05-07T05:06:26;3.07;;;2.57;;
8219;SDS011;4151;51.110;7.020;2023-05-07T05:08:53;6.70;;;2.80;;
8219;SDS011;4151;51.110;7.020;2023-05-07T05:11:19;4.60;;;2.50;;
8219;SDS011;4151;51.110;7.020;2023-05-07T05:13:45;3.20;;;2.57;;
8219;SDS011;4151;51.110;7.020;2023-05-07T05:16:13;5.37;;;2.73;;
8219;SDS011;4151;51.110;7.020;2023-05-07T05:18:39;3.20;;;2.60;;
8219;SDS011;4151;51.110;7.020;2023-05-07T05:21:05;10.17;;;3.53;;
8219;SDS011;4151;51.110;7.020;2023-05-07T05:23:30;2.63;;;2.13;;
8219;SDS011;4151;51.110;7.020;2023-05-07T05:25:56;6.40;;;2.30;;
8219;SDS011;4151;51.110;7.020;2023-05-07T05:28:22;2.30;;;2.10;;
8219;SDS011;4151;51.110;7.020;2023-05-07T05:30:48;3.63;;;2.03;;
8219;SDS011;4151;51.110;7.020;2023-05-07T05:33:14;5.10;;;2.30;;
8219;SDS011;4151;51.110;7.020;2023-05-07T05:35:40;13.50;;;2.53;;
8219;SDS011;4151;51.110;7.020;2023-05-07T05:38:06;2.73;;;1.90;;
8219;SDS011;4151;51.110;7.020;2023-05-07T05:40:31;2.70;;;1.77;;
8219;SDS011;4151;51.110;7.020;2023-05-07T05:42:58;5.33;;;2.10;;
8219;SDS011;4151;51.110;7.020;2023-05-07T05:45:24;2.10;;;1.90;;
8219;SDS011;4151;51.110;7.020;2023-05-07T05:47:50;3.00;;;2.00;;
8219;SDS011;4151;51.110;7.020;2023-05-07T05:50:15;3.33;;;2.30;;
8219;SDS011;4151;51.110;7.020;2023-05-07T05:52:41;7.47;;;2.40;;
8219;SDS011;4151;51.110;7.020;2023-05-07T05:55:07;7.23;;;2.00;;
8219;SDS011;4151;51.110;7.020;2023-05-07T05:57:33;5.17;;;1.70;;
8219;SDS011;4151;51.110;7.020;2023-05-07T05:59:59;2.10;;;1.90;;
8219;SDS011;4151;51.110;7.020;2023-05-07T06:02:25;4.90;;;2.00;;
8219;SDS011;4151;51.110;7.020;2023-05-07T06:04:51;3.93;;;2.10;;
8219;SDS011;4151;51.110;7.020;2023-05-07T06:07:16;5.33;;;2.27;;
8219;SDS011;4151;51.110;7.020;2023-05-07T06:09:42;3.67;;;1.87;;
8219;SDS011;4151;51.110;7.020;2023-05-07T06:12:07;4.30;;;1.87;;
8219;SDS011;4151;51.110;7.020;2023-05-07T06:14:33;6.83;;;2.00;;
8219;SDS011;4151;51.110;7.020;2023-05-07T06:16:58;1.80;;;1.50;;
8219;SDS011;4151;51.110;7.020;2023-05-07T06:19:24;1.90;;;1.70;;
8219;SDS011;4151;51.110;7.020;2023-05-07T06:21:51;3.30;;;2.17;;
8219;SDS011;4151;51.110;7.020;2023-05-07T06:24:17;3.10;;;2.30;;
8219;SDS011;4151;51.110;7.020;2023-05-07T06:26:42;2.00;;;1.80;;
8219;SDS011;4151;51.110;7.020;2023-05-07T06:29:08;4.83;;;2.33;;
8219;SDS011;4151;51.110;7.020;2023-05-07T06:31:33;4.80;;;2.00;;
8219;SDS011;4151;51.110;7.020;2023-05-07T06:33:59;2.60;;;1.67;;
8219;SDS011;4151;51.110;7.020;2023-05-07T06:36:27;3.20;;;1.70;;
8219;SDS011;4151;51.110;7.020;2023-05-07T06:38:52;5.20;;;1.90;;
8219;SDS011;4151;51.110;7.020;2023-05-07T06:41:18;6.33;;;2.00;;
8219;SDS011;4151;51.110;7.020;2023-05-07T06:43:43;3.50;;;2.20;;
8219;SDS011;4151;51.110;7.020;2023-05-07T06:46:09;2.10;;;1.80;;
8219;SDS011;4151;51.110;7.020;2023-05-07T06:48:35;3.27;;;1.57;;
8219;SDS011;4151;51.110;7.020;2023-05-07T06:51:00;4.20;;;2.07;;
8219;SDS011;4151;51.110;7.020;2023-05-07T06:53:26;3.83;;;1.67;;
8219;SDS011;4151;51.110;7.020;2023-05-07T06:55:53;4.97;;;1.83;;
8219;SDS011;4151;51.110;7.020;2023-05-07T06:58:19;2.20;;;1.97;;
8219;SDS011;4151;51.110;7.020;2023-05-07T07:00:44;3.00;;;1.70;;
8219;SDS011;4151;51.110;7.020;2023-05-07T07:03:10;2.17;;;1.70;;
8219;SDS011;4151;51.110;7.020;2023-05-07T07:05:36;1.90;;;1.63;;
8219;SDS011;4151;51.110;7.020;2023-05-07T07:08:02;4.70;;;1.43;;
8219;SDS011;4151;51.110;7.020;2023-05-07T07:10:27;3.00;;;1.43;;
8219;SDS011;4151;51.110;7.020;2023-05-07T07:12:53;1.63;;;1.53;;
8219;SDS011;4151;51.110;7.020;2023-05-07T07:15:19;2.73;;;1.60;;
8219;SDS011;4151;51.110;7.020;2023-05-07T07:17:45;4.13;;;1.90;;
8219;SDS011;4151;51.110;7.020;2023-05-07T07:20:11;4.10;;;1.70;;
8219;SDS011;4151;51.110;7.020;2023-05-07T07:22:37;1.90;;;1.60;;
8219;SDS011;4151;51.110;7.020;2023-05-07T07:25:02;2.83;;;1.60;;
8219;SDS011;4151;51.110;7.020;2023-05-07T07:27:28;2.90;;;1.70;;
8219;SDS011;4151;51.110;7.020;2023-05-07T07:29:54;1.77;;;1.50;;
8219;SDS011;4151;51.110;7.020;2023-05-07T07:32:19;2.07;;;1.80;;
8219;SDS011;4151;51.110;7.020;2023-05-07T07:34:45;1.87;;;1.60;;
8219;SDS011;4151;51.110;7.020;2023-05-07T07:37:11;3.67;;;1.50;;
8219;SDS011;4151;51.110;7.020;2023-05-07T07:39:36;4.47;;;1.50;;
8219;SDS011;4151;51.110;7.020;2023-05-07T07:42:06;2.30;;;1.50;;
8219;SDS011;4151;51.110;7.020;2023-05-07T07:44:31;5.07;;;2.03;;
8219;SDS011;4151;51.110;7.020;2023-05-07T07:46:57;7.93;;;2.17;;
8219;SDS011;4151;51.110;7.020;2023-05-07T07:49:22;4.17;;;1.80;;
8219;SDS011;4151;51.110;7.020;2023-05-07T07:51:48;1.93;;;1.33;;
8219;SDS011;4151;51.110;7.020;2023-05-07T07:54:13;3.67;;;1.43;;
8219;SDS011;4151;51.110;7.020;2023-05-07T07:56:39;2.27;;;1.77;;
8219;SDS011;4151;51.110;7.020;2023-05-07T07:59:05;4.37;;;1.90;;
8219;SDS011;4151;51.110;7.020;2023-05-07T08:01:30;4.03;;;1.73;;
8219;SDS011;4151;51.110;7.020;2023-05-07T08:03:56;1.53;;;1.43;;
8219;SDS011;4151;51.110;7.020;2023-05-07T08:06:24;3.13;;;1.90;;
8219;SDS011;4151;51.110;7.020;2023-05-07T08:08:53;3.13;;;1.87;;
8219;SDS011;4151;51.110;7.020;2023-05-07T08:11:19;2.40;;;1.60;;
8219;SDS011;4151;51.110;7.020;2023-05-07T08:13:46;2.10;;;1.50;;
8219;SDS011;4151;51.110;7.020;2023-05-07T08:16:12;2.40;;;1.73;;
8219;SDS011;4151;51.110;7.020;2023-05-07T08:18:37;1.70;;;1.60;;
8219;SDS011;4151;51.110;7.020;2023-05-07T08:21:03;5.23;;;2.20;;
8219;SDS011;4151;51.110;7.020;2023-05-07T08:23:29;2.53;;;1.83;;
8219;SDS011;4151;51.110;7.020;2023-05-07T08:25:55;3.20;;;2.10;;
8219;SDS011;4151;51.110;7.020;2023-05-07T08:28:20;1.70;;;1.53;;
8219;SDS011;4151;51.110;7.020;2023-05-07T08:30:46;2.10;;;1.40;;
8219;SDS011;4151;51.110;7.020;2023-05-07T08:33:12;2.03;;;1.47;;
8219;SDS011;4151;51.110;7.020;2023-05-07T08:35:38;2.30;;;1.80;;
8219;SDS011;4151;51.110;7.020;2023-05-07T08:38:03;7.97;;;1.97;;
8219;SDS011;4151;51.110;7.020;2023-05-07T08:40:29;2.17;;;1.97;;
8219;SDS011;4151;51.110;7.020;2023-05-07T08:43:00;2.43;;;1.47;;
8219;SDS011;4151;51.110;7.020;2023-05-07T08:45:27;2.87;;;1.70;;
8219;SDS011;4151;51.110;7.020;2023-05-07T08:47:58;4.53;;;2.27;;
8219;SDS011;4151;51.110;7.020;2023-05-07T08:50:25;2.47;;;1.73;;
8219;SDS011;4151;51.110;7.020;2023-05-07T08:52:50;6.40;;;2.00;;
8219;SDS011;4151;51.110;7.020;2023-05-07T08:55:16;2.67;;;1.60;;
8219;SDS011;4151;51.110;7.020;2023-05-07T08:57:42;2.67;;;1.90;;
8219;SDS011;4151;51.110;7.020;2023-05-07T09:00:08;5.40;;;1.80;;
8219;SDS011;4151;51.110;7.020;2023-05-07T09:02:35;4.07;;;1.50;;
8219;SDS011;4151;51.110;7.020;2023-05-07T09:05:01;3.17;;;1.83;;
8219;SDS011;4151;51.110;7.020;2023-05-07T09:07:27;2.20;;;1.60;;
8219;SDS011;4151;51.110;7.020;2023-05-07T09:09:54;2.70;;;1.23;;
8219;SDS011;4151;51.110;7.020;2023-05-07T09:12:20;3.17;;;1.47;;
8219;SDS011;4151;51.110;7.020;2023-05-07T09:14:46;2.03;;;1.43;;
8219;SDS011;4151;51.110;7.020;2023-05-07T09:17:12;3.90;;;1.77;;
8219;SDS011;4151;51.110;7.020;2023-05-07T09:19:38;4.03;;;2.00;;
8219;SDS011;4151;51.110;7.020;2023-05-07T09:22:05;4.67;;;1.77;;
8219;SDS011;4151;51.110;7.020;2023-05-07T09:24:34;2.90;;;1.70;;
8219;SDS011;4151;51.110;7.020;2023-05-07T09:27:01;2.30;;;1.60;;
8219;SDS011;4151;51.110;7.020;2023-05-07T09:29:27;2.30;;;1.63;;
8219;SDS011;4151;51.110;7.020;2023-05-07T09:31:55;2.33;;;1.57;;
8219;SDS011;4151;51.110;7.020;2023-05-07T09:34:20;2.70;;;1.47;;
8219;SDS011;4151;51.110;7.020;2023-05-07T09:36:47;3.03;;;1.70;;
8219;SDS011;4151;51.110;7.020;2023-05-07T09:39:13;2.50;;;1.70;;
8219;SDS011;4151;51.110;7.020;2023-05-07T09:41:48;7.57;;;1.87;;
8219;SDS011;4151;51.110;7.020;2023-05-07T09:44:19;6.93;;;1.90;;
8219;SDS011;4151;51.110;7.020;2023-05-07T09:46:46;2.43;;;1.80;;
8219;SDS011;4151;51.110;7.020;2023-05-07T09:49:21;8.23;;;1.53;;
8219;SDS011;4151;51.110;7.020;2023-05-07T09:51:49;3.40;;;1.50;;
8219;SDS011;4151;51.110;7.020;2023-05-07T09:54:16;1.97;;;1.47;;
8219;SDS011;4151;51.110;7.020;2023-05-07T09:56:43;5.10;;;1.80;;
8219;SDS011;4151;51.110;7.020;2023-05-07T09:59:10;3.57;;;1.70;;
8219;SDS011;4151;51.110;7.020;2023-05-07T10:01:38;2.80;;;1.63;;
8219;SDS011;4151;51.110;7.020;2023-05-07T10:04:06;2.97;;;1.70;;
8219;SDS011;4151;51.110;7.020;2023-05-07T10:06:33;2.50;;;1.70;;
8219;SDS011;4151;51.110;7.020;2023-05-07T10:09:00;4.33;;;1.90;;
8219;SDS011;4151;51.110;7.020;2023-05-07T10:11:26;3.70;;;1.80;;
8219;SDS011;4151;51.110;7.020;2023-05-07T10:13:53;7.13;;;1.80;;
8219;SDS011;4151;51.110;7.020;2023-05-07T10:16:19;2.47;;;1.70;;
8219;SDS011;4151;51.110;7.020;2023-05-07T10:18:46;2.60;;;1.50;;
8219;SDS011;4151;51.110;7.020;2023-05-07T10:21:17;4.60;;;1.63;;
8219;SDS011;4151;51.110;7.020;2023-05-07T10:23:57;5.20;;;1.43;;
8219;SDS011;4151;51.110;7.020;2023-05-07T10:26:25;2.63;;;1.47;;
8219;SDS011;4151;51.110;7.020;2023-05-07T10:28:56;2.03;;;1.50;;
8219;SDS011;4151;51.110;7.020;2023-05-07T10:31:34;3.33;;;1.70;;
8219;SDS011;4151;51.110;7.020;2023-05-07T10:34:21;2.10;;;1.30;;
8219;SDS011;4151;51.110;7.020;2023-05-07T10:36:51;1.87;;;1.37;;
8219;SDS011;4151;51.110;7.020;2023-05-07T10:39:17;2.23;;;1.30;;
8219;SDS011;4151;51.110;7.020;2023-05-07T10:41:44;4.30;;;1.43;;
8219;SDS011;4151;51.110;7.020;2023-05-07T10:44:09;3.50;;;1.50;;
8219;SDS011;4151;51.110;7.020;2023-05-07T10:46:36;3.90;;;1.60;;
8219;SDS011;4151;51.110;7.020;2023-05-07T10:51:33;3.67;;;1.53;;
8219;SDS011;4151;51.110;7.020;2023-05-07T10:56:34;4.33;;;2.10;;
8219;SDS011;4151;51.110;7.020;2023-05-07T11:01:49;3.30;;;1.57;;
8219;SDS011;4151;51.110;7.020;2023-05-07T11:04:15;3.83;;;1.93;;
8219;SDS011;4151;51.110;7.020;2023-05-07T11:06:42;2.90;;;1.43;;
8219;SDS011;4151;51.110;7.020;2023-05-07T11:15:05;2.67;;;1.60;;
8219;SDS011;4151;51.110;7.020;2023-05-07T11:17:35;1.57;;;1.27;;
8219;SDS011;4151;51.110;7.020;2023-05-07T11:20:20;4.90;;;1.93;;
8219;SDS011;4151;51.110;7.020;2023-05-07T11:23:08;4.23;;;1.33;;
8219;SDS011;4151;51.110;7.020;2023-05-07T11:25:58;2.67;;;1.50;;
8219;SDS011;4151;51.110;7.020;2023-05-07T11:28:30;2.23;;;1.53;;
8219;SDS011;4151;51.110;7.020;2023-05-07T11:31:01;2.53;;;1.30;;
8219;SDS011;4151;51.110;7.020;2023-05-07T11:33:27;3.87;;;1.30;;
8219;SDS011;4151;51.110;7.020;2023-05-07T11:35:53;2.80;;;1.40;;
8219;SDS011;4151;51.110;7.020;2023-05-07T11:38:19;2.13;;;1.37;;
8219;SDS011;4151;51.110;7.020;2023-05-07T11:40:51;2.47;;;1.33;;
8219;SDS011;4151;51.110;7.020;2023-05-07T11:43:21;1.87;;;1.30;;
8219;SDS011;4151;51.110;7.020;2023-05-07T11:45:47;4.17;;;1.30;;
8219;SDS011;4151;51.110;7.020;2023-05-07T11:48:14;2.90;;;1.43;;
8219;SDS011;4151;51.110;7.020;2023-05-07T11:50:50;2.80;;;1.70;;
8219;SDS011;4151;51.110;7.020;2023-05-07T11:53:17;2.30;;;1.17;;
8219;SDS011;4151;51.110;7.020;2023-05-07T11:55:44;1.77;;;1.07;;
8219;SDS011;4151;51.110;7.020;2023-05-07T11:58:11;3.27;;;1.00;;
8219;SDS011;4151;51.110;7.020;2023-05-07T12:00:51;1.57;;;1.20;;
8219;SDS011;4151;51.110;7.020;2023-05-07T12:03:18;3.23;;;1.50;;
8219;SDS011;4151;51.110;7.020;2023-05-07T12:05:47;1.67;;;1.00;;
8219;SDS011;4151;51.110;7.020;2023-05-07T12:08:17;4.23;;;1.30;;
8219;SDS011;4151;51.110;7.020;2023-05-07T12:10:43;2.83;;;0.90;;
8219;SDS011;4151;51.110;7.020;2023-05-07T12:15:55;4.00;;;1.60;;
8219;SDS011;4151;51.110;7.020;2023-05-07T12:18:21;3.10;;;1.30;;
8219;SDS011;4151;51.110;7.020;2023-05-07T12:20:48;2.80;;;1.37;;
8219;SDS011;4151;51.110;7.020;2023-05-07T12:23:14;5.00;;;2.00;;
8219;SDS011;4151;51.110;7.020;2023-05-07T12:25:40;4.93;;;1.53;;
8219;SDS011;4151;51.110;7.020;2023-05-07T12:28:12;2.30;;;1.30;;
8219;SDS011;4151;51.110;7.020;2023-05-07T12:30:40;2.70;;;1.40;;
8219;SDS011;4151;51.110;7.020;2023-05-07T12:33:07;5.50;;;1.30;;
8219;SDS011;4151;51.110;7.020;2023-05-07T12:35:37;4.53;;;1.30;;
8219;SDS011;4151;51.110;7.020;2023-05-07T12:38:07;1.63;;;1.03;;
8219;SDS011;4151;51.110;7.020;2023-05-07T12:40:37;3.77;;;1.50;;
8219;SDS011;4151;51.110;7.020;2023-05-07T12:43:07;2.17;;;1.37;;
8219;SDS011;4151;51.110;7.020;2023-05-07T12:45:40;3.30;;;1.83;;
8219;SDS011;4151;51.110;7.020;2023-05-07T12:48:06;4.30;;;1.50;;
8219;SDS011;4151;51.110;7.020;2023-05-07T12:50:35;1.80;;;1.40;;
8219;SDS011;4151;51.110;7.020;2023-05-07T12:53:00;5.90;;;1.40;;
8219;SDS011;4151;51.110;7.020;2023-05-07T12:55:30;3.07;;;1.80;;
8219;SDS011;4151;51.110;7.020;2023-05-07T12:57:56;1.40;;;1.30;;
8219;SDS011;4151;51.110;7.020;2023-05-07T13:00:32;3.23;;;2.07;;
8219;SDS011;4151;51.110;7.020;2023-05-07T13:03:02;4.70;;;2.90;;
8219;SDS011;4151;51.110;7.020;2023-05-07T13:05:27;5.30;;;3.30;;
8219;SDS011;4151;51.110;7.020;2023-05-07T13:07:53;5.63;;;2.40;;
8219;SDS011;4151;51.110;7.020;2023-05-07T13:10:20;6.30;;;4.00;;
8219;SDS011;4151;51.110;7.020;2023-05-07T13:12:46;3.00;;;2.33;;
8219;SDS011;4151;51.110;7.020;2023-05-07T13:15:12;3.20;;;1.83;;
8219;SDS011;4151;51.110;7.020;2023-05-07T13:17:37;1.90;;;1.43;;
8219;SDS011;4151;51.110;7.020;2023-05-07T13:20:03;4.13;;;2.83;;
8219;SDS011;4151;51.110;7.020;2023-05-07T13:22:30;2.30;;;1.80;;
8219;SDS011;4151;51.110;7.020;2023-05-07T13:24:56;4.00;;;2.20;;
8219;SDS011;4151;51.110;7.020;2023-05-07T13:27:22;3.10;;;2.43;;
8219;SDS011;4151;51.110;7.020;2023-05-07T13:29:47;4.63;;;2.20;;
8219;SDS011;4151;51.110;7.020;2023-05-07T13:32:13;8.60;;;2.40;;
8219;SDS011;4151;51.110;7.020;2023-05-07T13:34:38;3.40;;;2.13;;
8219;SDS011;4151;51.110;7.020;2023-05-07T13:37:04;5.03;;;4.03;;
8219;SDS011;4151;51.110;7.020;2023-05-07T13:39:29;4.23;;;2.80;;
8219;SDS011;4151;51.110;7.020;2023-05-07T13:41:55;8.97;;;2.40;;
8219;SDS011;4151;51.110;7.020;2023-05-07T13:44:20;2.80;;;2.50;;
8219;SDS011;4151;51.110;7.020;2023-05-07T13:46:46;3.83;;;2.53;;
8219;SDS011;4151;51.110;7.020;2023-05-07T13:49:12;4.13;;;2.97;;
8219;SDS011;4151;51.110;7.020;2023-05-07T13:51:37;10.20;;;3.20;;
8219;SDS011;4151;51.110;7.020;2023-05-07T13:54:03;3.53;;;2.90;;
8219;SDS011;4151;51.110;7.020;2023-05-07T13:56:29;4.47;;;2.80;;
8219;SDS011;4151;51.110;7.020;2023-05-07T13:58:57;9.33;;;2.40;;
8219;SDS011;4151;51.110;7.020;2023-05-07T14:01:23;3.73;;;2.40;;
8219;SDS011;4151;51.110;7.020;2023-05-07T14:03:48;6.67;;;2.60;;
8219;SDS011;4151;51.110;7.020;2023-05-07T14:06:14;4.13;;;2.30;;
8219;SDS011;4151;51.110;7.020;2023-05-07T14:08:39;4.70;;;2.60;;
8219;SDS011;4151;51.110;7.020;2023-05-07T14:11:05;5.33;;;2.13;;
8219;SDS011;4151;51.110;7.020;2023-05-07T14:13:31;5.53;;;2.20;;
8219;SDS011;4151;51.110;7.020;2023-05-07T14:15:57;3.90;;;2.30;;
8219;SDS011;4151;51.110;7.020;2023-05-07T14:18:23;4.10;;;2.50;;
8219;SDS011;4151;51.110;7.020;2023-05-07T14:20:48;3.20;;;2.27;;
8219;SDS011;4151;51.110;7.020;2023-05-07T14:23:14;5.80;;;2.30;;
8219;SDS011;4151;51.110;7.020;2023-05-07T14:25:40;3.20;;;1.83;;
8219;SDS011;4151;51.110;7.020;2023-05-07T14:28:06;3.70;;;2.20;;
8219;SDS011;4151;51.110;7.020;2023-05-07T14:30:31;9.87;;;2.37;;
8219;SDS011;4151;51.110;7.020;2023-05-07T14:32:57;3.47;;;2.00;;
8219;SDS011;4151;51.110;7.020;2023-05-07T14:35:23;3.10;;;2.20;;
8219;SDS011;4151;51.110;7.020;2023-05-07T14:37:48;8.37;;;5.87;;
8219;SDS011;4151;51.110;7.020;2023-05-07T14:40:14;4.70;;;3.17;;
8219;SDS011;4151;51.110;7.020;2023-05-07T14:42:40;11.03;;;4.60;;
8219;SDS011;4151;51.110;7.020;2023-05-07T14:45:05;7.40;;;3.87;;
8219;SDS011;4151;51.110;7.020;2023-05-07T14:47:31;5.70;;;3.40;;
8219;SDS011;4151;51.110;7.020;2023-05-07T14:49:57;4.97;;;2.80;;
8219;SDS011;4151;51.110;7.020;2023-05-07T14:52:23;8.17;;;2.97;;
8219;SDS011;4151;51.110;7.020;2023-05-07T14:54:48;5.90;;;3.00;;
8219;SDS011;4151;51.110;7.020;2023-05-07T14:57:14;5.23;;;3.30;;
8219;SDS011;4151;51.110;7.020;2023-05-07T14:59:41;4.53;;;3.07;;
8219;SDS011;4151;51.110;7.020;2023-05-07T15:02:06;8.00;;;3.43;;
8219;SDS011;4151;51.110;7.020;2023-05-07T15:04:33;6.57;;;3.23;;
8219;SDS011;4151;51.110;7.020;2023-05-07T15:06:59;8.40;;;3.50;;
8219;SDS011;4151;51.110;7.020;2023-05-07T15:09:25;4.50;;;3.27;;
8219;SDS011;4151;51.110;7.020;2023-05-07T15:11:51;8.10;;;3.37;;
8219;SDS011;4151;51.110;7.020;2023-05-07T15:14:16;8.90;;;4.57;;
8219;SDS011;4151;51.110;7.020;2023-05-07T15:16:42;9.87;;;5.10;;
8219;SDS011;4151;51.110;7.020;2023-05-07T15:19:08;9.03;;;5.00;;
8219;SDS011;4151;51.110;7.020;2023-05-07T15:21:33;10.93;;;6.37;;
8219;SDS011;4151;51.110;7.020;2023-05-07T15:24:00;8.13;;;6.00;;
8219;SDS011;4151;51.110;7.020;2023-05-07T15:26:26;10.43;;;6.17;;
8219;SDS011;4151;51.110;7.020;2023-05-07T15:28:52;13.43;;;7.00;;